This is the latest recevied weather packets stored in our database for station/object HP1CDW-13. If no packets are shown the sender has not sent any weather packets the latest 10 day(s).
| Time | Temp. | Humidity | Pressure | Rain* | Wind** | Luminosity | Snow |
|---|---|---|---|---|---|---|---|
| 1778087090 | 32.22° C | 73% | 1014.8 hPa | 0 mm | - | - | - |
| 1778086490 | 31.67° C | 74% | 1014.8 hPa | 0 mm | - | - | - |
| 1778085890 | 32.22° C | 73% | 1014.9 hPa | 0 mm | - | - | - |
| 1778085290 | 31.67° C | 73% | 1014.8 hPa | 0 mm | - | - | - |
| 1778084690 | 32.22° C | 73% | 1015.1 hPa | 0 mm | - | - | - |
| 1778084090 | 31.67° C | 75% | 1015.3 hPa | 0 mm | - | - | - |
| 1778083490 | 32.22° C | 73% | 1015.5 hPa | 0 mm | - | - | - |
| 1778082890 | 31.11° C | 75% | 1015.3 hPa | 0 mm | - | - | - |
| 1778082290 | 31.67° C | 74% | 1015.6 hPa | 0 mm | - | - | - |
| 1778081690 | 31.67° C | 73% | 1015.3 hPa | 0 mm | - | - | - |
| 1778081090 | 32.22° C | 73% | 1015.4 hPa | 0 mm | - | - | - |
| 1778080490 | 32.78° C | 71% | 1015.4 hPa | 0 mm | - | - | - |
| 1778079890 | 32.78° C | 68% | 1015.1 hPa | 0 mm | - | - | - |
| 1778079290 | 31.67° C | 71% | 1015.3 hPa | 0 mm | - | - | - |
| 1778078690 | 32.22° C | 72% | 1015.2 hPa | 0 mm | - | - | - |
| 1778078090 | 31.67° C | 72% | 1015.3 hPa | 0 mm | - | - | - |
| 1778077490 | 31.11° C | 73% | 1015.2 hPa | 0 mm | - | - | - |
| 1778076890 | 31.67° C | 73% | 1015.3 hPa | 0 mm | - | - | - |
| 1778076290 | 31.11° C | 75% | 1015.1 hPa | 0 mm | - | - | - |
| 1778075690 | 30.56° C | 75% | 1015.1 hPa | 0 mm | - | - | - |
| 1778075090 | 30.56° C | 77% | 1014.8 hPa | 0 mm | - | - | - |
| 1778074490 | 30° C | 78% | 1014.8 hPa | 0 mm | - | - | - |
| 1778073890 | 30° C | 79% | 1014.8 hPa | 0 mm | - | - | - |
| 1778073290 | 29.44° C | 80% | 1014.6 hPa | 0 mm | - | - | - |
| 1778072690 | 28.89° C | 83% | 1014.6 hPa | 0 mm | - | - | - |
* Rain latest hour (hover to see other rain measurements)
** Current wind speed in m/s (hover to see current wind gust speed)